Time;durP1;ratioP1;P1;durP2;ratioP2;P2;SDS_P1;SDS_P2;PMS_P1;PMS_P2;Temp;Humidity;BMP_temperature;BMP_pressure;BME280_temperature;BME280_humidity;BME280_pressure;Samples;Min_cycle;Max_cycle;Signal;HPM_P1;HPM_P2
2024/01/25 00:00:32;;;;;;;193.95;7.90;;;;;;;20.37;48.50;99749.28;7294753;19;131689;-38
2024/01/25 00:02:57;;;;;;;220.07;8.90;;;;;;;20.35;48.32;99756.41;7296016;19;131314;-37
2024/01/25 00:05:23;;;;;;;182.93;7.35;;;;;;;20.37;48.29;99746.66;7296134;19;129703;-38
2024/01/25 00:07:49;;;;;;;166.35;6.78;;;;;;;20.38;48.22;99745.69;7295204;19;129890;-39
2024/01/25 00:10:17;;;;;;;146.38;6.35;;;;;;;20.34;48.44;99754.75;7293836;19;130306;-38
2024/01/25 00:12:42;;;;;;;255.00;10.02;;;;;;;20.36;48.40;99745.00;7297922;19;132074;-38
2024/01/25 00:15:09;;;;;;;192.30;8.15;;;;;;;20.36;48.00;99758.06;7296787;19;129153;-39
2024/01/25 00:17:34;;;;;;;190.43;7.45;;;;;;;20.36;48.45;99768.50;7296611;19;130691;-38
2024/01/25 00:20:00;;;;;;;204.52;7.95;;;;;;;20.36;48.12;99763.28;7292554;19;130262;-38
2024/01/25 00:22:26;;;;;;;205.70;8.25;;;;;;;20.35;48.55;99766.84;7294017;19;129632;-40
2024/01/25 00:24:51;;;;;;;135.63;5.95;;;;;;;20.35;48.67;99766.84;7297243;19;130474;-38
2024/01/25 00:27:16;;;;;;;183.15;7.75;;;;;;;20.33;49.15;99763.53;7292789;19;129233;-38
2024/01/25 00:29:42;;;;;;;197.38;8.07;;;;;;;20.29;49.36;99751.69;7294467;19;130947;-37
2024/01/25 00:32:07;;;;;;;235.15;9.43;;;;;;;20.15;49.35;99746.78;7295203;19;130348;-38
2024/01/25 00:34:33;;;;;;;198.90;7.95;;;;;;;20.30;49.83;99777.69;7297029;19;130444;-38
2024/01/25 00:36:58;;;;;;;186.57;7.45;;;;;;;20.18;49.92;99749.16;7294317;19;129221;-37
2024/01/25 00:39:24;;;;;;;121.60;5.10;;;;;;;20.29;49.99;99783.03;7293502;19;130450;-38
2024/01/25 00:41:51;;;;;;;226.98;8.85;;;;;;;20.29;50.28;99785.63;7296881;19;132376;-38
2024/01/25 00:44:17;;;;;;;219.38;9.40;;;;;;;20.27;50.45;99788.38;7296350;19;130300;-38
2024/01/25 00:46:43;;;;;;;153.37;6.63;;;;;;;20.27;50.46;99784.94;7295988;19;131641;-38
2024/01/25 00:49:09;;;;;;;251.33;10.10;;;;;;;20.26;50.29;99784.09;7294677;19;130285;-38
2024/01/25 00:51:36;;;;;;;225.30;8.88;;;;;;;20.26;50.64;99788.50;7292807;19;131515;-37
2024/01/25 00:54:01;;;;;;;191.48;7.75;;;;;;;20.28;50.66;99794.44;7295238;19;129315;-38
2024/01/25 00:56:28;;;;;;;129.45;5.38;;;;;;;20.13;49.99;99766.94;7294488;19;129466;-38
2024/01/25 00:58:53;;;;;;;197.07;7.93;;;;;;;20.28;49.00;99784.00;7294407;19;131779;-38
2024/01/25 01:01:22;;;;;;;233.13;9.38;;;;;;;20.11;49.11;99763.63;7292834;19;130325;-37
2024/01/25 01:03:52;;;;;;;212.88;8.85;;;;;;;20.28;48.65;99797.84;7291365;19;129297;-37
2024/01/25 01:06:19;;;;;;;213.45;8.55;;;;;;;20.28;49.01;99804.88;7294439;19;130549;-38
2024/01/25 01:08:45;;;;;;;170.63;6.95;;;;;;;20.31;49.02;99788.97;7293278;19;130175;-38
2024/01/25 01:11:11;;;;;;;309.33;12.40;;;;;;;20.29;48.38;99793.47;7290372;19;130326;-38
2024/01/25 01:13:36;;;;;;;150.70;6.25;;;;;;;20.14;48.09;99784.25;7294462;19;129890;-37
2024/01/25 01:16:01;;;;;;;178.98;7.20;;;;;;;20.25;48.37;99797.28;7294874;19;129063;-38
2024/01/25 01:18:27;;;;;;;182.50;7.25;;;;;;;20.29;48.58;99804.75;7294521;19;130625;-39
2024/01/25 01:20:52;;;;;;;253.63;9.93;;;;;;;20.31;48.22;99802.00;7292816;19;132502;-40
2024/01/25 01:23:18;;;;;;;194.13;7.55;;;;;;;20.31;48.20;99808.03;7294494;19;131466;-38
2024/01/25 01:25:43;;;;;;;175.18;7.03;;;;;;;20.29;47.97;99803.91;7294114;19;131070;-38
2024/01/25 01:28:08;;;;;;;199.63;7.90;;;;;;;20.23;48.55;99779.13;7292367;19;130223;-37
2024/01/25 01:30:34;;;;;;;204.52;8.05;;;;;;;20.33;48.46;99800.91;7292657;19;132283;-39
2024/01/25 01:32:59;;;;;;;180.55;7.10;;;;;;;20.30;49.64;99805.56;7295675;19;132820;-38
2024/01/25 01:35:24;;;;;;;202.68;8.52;;;;;;;20.14;49.71;99800.75;7293369;19;131632;-39
2024/01/25 01:37:50;;;;;;;139.95;5.65;;;;;;;20.07;50.59;99798.75;7293683;19;130867;-38
2024/01/25 01:40:15;;;;;;;169.60;7.03;;;;;;;19.99;50.54;99801.16;7291958;19;129179;-38
2024/01/25 01:42:40;;;;;;;217.32;8.82;;;;;;;19.94;50.59;99803.31;7293656;19;130705;-39
2024/01/25 01:45:06;;;;;;;193.00;7.47;;;;;;;19.87;50.39;99802.13;7294706;19;131576;-38
2024/01/25 01:47:31;;;;;;;234.90;9.38;;;;;;;19.74;50.55;99801.47;7292952;19;130720;-39
2024/01/25 01:49:57;;;;;;;207.63;8.33;;;;;;;19.84;50.99;99815.44;7292246;19;130344;-38
2024/01/25 01:52:23;;;;;;;159.47;6.53;;;;;;;19.83;51.46;99805.97;7293295;19;129477;-36
2024/01/25 01:54:49;;;;;;;134.80;5.50;;;;;;;19.82;51.35;99814.72;7292130;19;129809;-37
2024/01/25 01:57:14;;;;;;;236.38;9.25;;;;;;;19.82;50.96;99817.31;7292714;19;130714;-38
2024/01/25 01:59:40;;;;;;;105.28;4.75;;;;;;;19.80;50.95;99807.03;7293201;19;131342;-37
2024/01/25 02:02:07;;;;;;;300.05;12.40;;;;;;;19.76;51.63;99803.03;7292294;19;130098;-37
2024/01/25 02:04:32;;;;;;;209.13;8.60;;;;;;;19.76;51.78;99799.56;7290534;19;129418;-39
2024/01/25 02:06:57;;;;;;;219.48;8.63;;;;;;;19.87;51.08;99807.34;7293634;19;130190;-38
2024/01/25 02:09:23;;;;;;;224.57;9.20;;;;;;;19.96;51.09;99797.03;7292198;19;132903;-37
2024/01/25 02:11:58;;;;;;;175.60;7.07;;;;;;;20.09;50.83;99794.25;7289745;19;129767;-38
2024/01/25 02:14:24;;;;;;;190.35;7.40;;;;;;;20.14;49.18;99800.75;7290861;19;130160;-36
2024/01/25 02:16:49;;;;;;;273.80;11.57;;;;;;;20.22;49.20;99811.41;7291736;19;132438;-38
2024/01/25 02:19:14;;;;;;;201.55;8.20;;;;;;;20.25;49.27;99812.94;7293344;19;130408;-39
2024/01/25 02:21:40;;;;;;;136.43;5.47;;;;;;;20.29;48.60;99809.13;7291640;19;129929;-38
2024/01/25 02:24:06;;;;;;;192.23;7.90;;;;;;;20.14;48.99;99799.91;7292691;19;129739;-38
2024/01/25 02:26:31;;;;;;;250.50;9.93;;;;;;;20.28;48.73;99815.31;7290559;19;130163;-37
2024/01/25 02:28:56;;;;;;;145.30;5.75;;;;;;;20.29;48.46;99801.31;7293117;19;129264;-38
2024/01/25 02:31:22;;;;;;;205.23;8.45;;;;;;;20.27;48.75;99811.88;7288625;19;129131;-37
2024/01/25 02:33:47;;;;;;;275.75;10.80;;;;;;;20.33;48.83;99824.41;7291481;19;129657;-38
2024/01/25 02:36:12;;;;;;;176.45;7.07;;;;;;;20.31;49.76;99822.91;7291464;19;130119;-37
2024/01/25 02:38:38;;;;;;;173.23;6.82;;;;;;;20.17;49.45;99816.19;7291300;19;131040;-37
2024/01/25 02:41:05;;;;;;;183.88;7.53;;;;;;;20.04;50.01;99809.44;7290161;19;131226;-39
2024/01/25 02:43:30;;;;;;;257.10;10.32;;;;;;;19.99;50.25;99819.41;7294728;19;131083;-38
2024/01/25 02:45:55;;;;;;;227.63;8.80;;;;;;;19.91;50.78;99819.22;7293859;19;129630;-36
2024/01/25 02:48:21;;;;;;;172.82;6.93;;;;;;;19.86;51.04;99822.19;7293667;19;130929;-37
2024/01/25 02:50:46;;;;;;;186.38;7.57;;;;;;;19.83;51.14;99816.41;7292555;19;129777;-37
2024/01/25 02:53:12;;;;;;;250.82;10.05;;;;;;;19.82;51.34;99825.16;7297099;19;129162;-37
2024/01/25 02:55:37;;;;;;;183.00;7.30;;;;;;;19.80;51.43;99832.31;7299076;19;130785;-39
2024/01/25 02:58:02;;;;;;;161.43;6.47;;;;;;;19.80;51.62;99838.31;7298512;19;131930;-38
2024/01/25 03:00:28;;;;;;;219.20;9.07;;;;;;;19.77;51.66;99842.94;7295397;19;129742;-37
2024/01/25 03:02:53;;;;;;;194.20;7.57;;;;;;;19.73;51.41;99836.34;7294755;19;129790;-38
2024/01/25 03:05:18;;;;;;;278.60;11.15;;;;;;;19.75;51.47;99839.66;7293713;19;130062;-38
2024/01/25 03:07:44;;;;;;;182.13;7.15;;;;;;;19.88;51.21;99848.16;7296466;19;130984;-38
2024/01/25 03:10:09;;;;;;;172.00;6.90;;;;;;;20.03;50.64;99845.13;7296579;19;129604;-37
2024/01/25 03:12:35;;;;;;;199.48;8.02;;;;;;;20.11;50.09;99852.38;7297543;19;129678;-37
2024/01/25 03:15:00;;;;;;;151.23;5.93;;;;;;;20.18;49.71;99845.75;7298788;19;130096;-37
2024/01/25 03:17:25;;;;;;;199.38;8.07;;;;;;;20.22;49.46;99839.28;7297037;19;130302;-39
2024/01/25 03:19:51;;;;;;;228.48;9.00;;;;;;;20.10;49.32;99824.59;7297334;19;130761;-38
2024/01/25 03:22:16;;;;;;;208.52;8.63;;;;;;;20.25;48.68;99846.88;7297321;19;130835;-37
2024/01/25 03:24:41;;;;;;;176.07;7.20;;;;;;;20.31;48.82;99843.78;7298073;19;130906;-37
2024/01/25 03:27:13;;;;;;;163.80;6.70;;;;;;;20.15;48.33;99823.31;7296535;19;131332;-37
2024/01/25 03:29:41;;;;;;;198.20;7.75;;;;;;;20.31;48.89;99849.00;7295833;19;129466;-38
2024/01/25 03:32:06;;;;;;;206.63;7.95;;;;;;;20.26;48.00;99840.72;7295582;19;130874;-37
2024/01/25 03:34:32;;;;;;;162.27;6.65;;;;;;;20.30;48.33;99852.56;7298042;19;129359;-39
2024/01/25 03:36:58;;;;;;;172.90;6.70;;;;;;;20.35;48.27;99846.00;7297483;19;130320;-39
2024/01/25 03:39:23;;;;;;;228.52;9.15;;;;;;;20.19;49.85;99847.38;7296422;19;129521;-37
2024/01/25 03:41:48;;;;;;;200.00;7.80;;;;;;;20.15;50.24;99857.25;7296717;19;129455;-37
2024/01/25 03:44:13;;;;;;;198.40;7.93;;;;;;;20.08;50.05;99863.88;7298795;19;132320;-37
2024/01/25 03:46:39;;;;;;;213.30;8.85;;;;;;;20.00;50.62;99855.03;7297668;19;131734;-39
2024/01/25 03:49:04;;;;;;;199.88;7.78;;;;;;;19.93;51.04;99864.28;7297814;19;129723;-39
2024/01/25 03:51:30;;;;;;;160.07;6.97;;;;;;;19.90;50.83;99854.91;7293891;19;129242;-37
2024/01/25 03:53:58;;;;;;;245.85;9.77;;;;;;;19.87;50.79;99856.94;7294734;19;129104;-36
2024/01/25 03:56:23;;;;;;;154.07;6.47;;;;;;;19.83;51.33;99853.75;7295675;19;130383;-38
2024/01/25 03:58:49;;;;;;;210.98;8.27;;;;;;;19.83;51.39;99858.13;7297375;19;130821;-38
2024/01/25 04:01:14;;;;;;;194.55;8.13;;;;;;;19.83;51.34;99852.91;7295319;19;129673;-37
2024/01/25 04:03:40;;;;;;;187.90;7.65;;;;;;;19.82;51.18;99856.47;7295239;19;129038;-37
2024/01/25 04:06:05;;;;;;;180.18;7.32;;;;;;;19.80;51.19;99858.38;7297475;19;131263;-38
2024/01/25 04:08:30;;;;;;;248.80;10.20;;;;;;;19.80;51.39;99858.38;7294473;19;131000;-37
2024/01/25 04:10:56;;;;;;;114.80;4.75;;;;;;;19.72;51.26;99826.88;7295160;19;130148;-35
2024/01/25 04:13:21;;;;;;;141.23;5.60;;;;;;;19.99;50.58;99848.97;7293029;19;130293;-37
2024/01/25 04:15:47;;;;;;;218.77;8.45;;;;;;;19.95;50.26;99833.69;7295403;19;130684;-39
2024/01/25 04:18:12;;;;;;;215.57;8.50;;;;;;;20.15;49.91;99853.78;7294269;19;132841;-38
2024/01/25 04:20:37;;;;;;;190.82;7.63;;;;;;;20.18;49.13;99859.59;7293271;19;131511;-35
2024/01/25 04:23:03;;;;;;;161.95;6.40;;;;;;;20.22;49.13;99863.63;7294456;19;131075;-37
2024/01/25 04:25:28;;;;;;;226.05;9.02;;;;;;;20.24;48.63;99869.56;7293116;19;130777;-37
2024/01/25 04:27:54;;;;;;;221.52;8.43;;;;;;;20.25;49.12;99859.94;7296637;19;130399;-38
2024/01/25 04:30:19;;;;;;;189.03;7.60;;;;;;;20.10;48.79;99850.69;7294821;19;130259;-39
2024/01/25 04:32:44;;;;;;;124.13;5.05;;;;;;;20.26;48.54;99866.81;7293460;19;129942;-36
2024/01/25 04:35:10;;;;;;;136.60;5.35;;;;;;;20.26;48.36;99866.81;7294524;19;129131;-38
2024/01/25 04:37:36;;;;;;;205.40;7.82;;;;;;;20.24;48.84;99876.56;7294869;19;129243;-35
2024/01/25 04:40:01;;;;;;;189.60;7.43;;;;;;;20.18;49.08;99869.22;7295439;19;130524;-38
2024/01/25 04:42:27;;;;;;;178.65;7.45;;;;;;;20.24;49.50;99868.72;7294497;19;129699;-40
2024/01/25 04:44:53;;;;;;;212.23;8.33;;;;;;;20.62;48.82;99861.19;7293450;19;130713;-37
2024/01/25 04:47:19;;;;;;;293.33;13.27;;;;;;;20.85;48.20;99865.34;7286597;19;129334;-37
2024/01/25 04:49:44;;;;;;;228.13;9.25;;;;;;;21.28;46.99;99865.19;7291134;19;129363;-39
2024/01/25 04:52:09;;;;;;;230.35;9.65;;;;;;;21.70;45.54;99870.16;7289744;19;130149;-38
2024/01/25 04:54:35;;;;;;;267.05;10.65;;;;;;;22.27;45.04;99871.25;7292921;19;130203;-38
2024/01/25 04:57:00;;;;;;;145.80;5.95;;;;;;;22.44;44.42;99857.47;7296051;19;131065;-37
2024/01/25 04:59:26;;;;;;;204.95;8.30;;;;;;;22.96;43.13;99877.97;7294626;19;130240;-38
2024/01/25 05:01:53;;;;;;;144.43;5.67;;;;;;;23.19;42.46;99867.00;7294894;19;132291;-37
2024/01/25 05:04:19;;;;;;;208.23;8.20;;;;;;;23.53;41.60;99883.06;7293836;19;130452;-38
2024/01/25 05:06:44;;;;;;;176.23;7.13;;;;;;;23.70;41.88;99878.84;7291325;19;129544;-38
2024/01/25 05:09:09;;;;;;;161.80;6.38;;;;;;;22.90;42.67;99874.13;7295375;19;129313;-38
2024/01/25 05:11:41;;;;;;;211.40;8.20;;;;;;;22.55;43.33;99865.19;7290104;19;130536;-37
2024/01/25 05:14:07;;;;;;;249.13;9.65;;;;;;;22.39;43.85;99870.16;7294086;19;131342;-38
2024/01/25 05:16:32;;;;;;;237.10;9.80;;;;;;;22.34;43.67;99857.47;7293716;19;129158;-37
2024/01/25 05:18:58;;;;;;;161.70;6.43;;;;;;;23.42;42.01;99885.06;7292983;19;129839;-38
2024/01/25 05:21:23;;;;;;;210.00;8.77;;;;;;;23.54;41.49;99889.13;7287718;19;130900;-38
2024/01/25 05:23:48;;;;;;;224.20;8.82;;;;;;;23.38;42.43;99888.91;7292548;19;129653;-36
2024/01/25 05:26:15;;;;;;;138.50;5.40;;;;;;;23.10;43.14;99880.16;7292854;19;129319;-36
2024/01/25 05:28:40;;;;;;;221.52;9.13;;;;;;;23.08;42.91;99889.94;7292636;19;129294;-38
2024/01/25 05:31:09;;;;;;;198.32;8.13;;;;;;;22.80;43.83;99909.19;7291826;19;130718;-38
2024/01/25 05:33:34;;;;;;;216.13;8.63;;;;;;;22.49;44.54;99874.44;7293058;19;130543;-37
2024/01/25 05:36:00;;;;;;;224.07;9.20;;;;;;;22.33;44.33;99868.91;7289413;19;129460;-38
2024/01/25 05:38:25;;;;;;;173.60;6.85;;;;;;;22.28;45.27;99899.09;7289257;19;129359;-39
2024/01/25 05:40:51;;;;;;;211.60;8.52;;;;;;;22.14;45.01;99909.97;7287929;19;130150;-37
2024/01/25 05:43:16;;;;;;;161.18;6.50;;;;;;;21.93;45.54;99913.50;7287796;19;130566;-37
2024/01/25 05:45:41;;;;;;;248.93;10.15;;;;;;;21.63;46.45;99925.78;7291837;19;129149;-37
2024/01/25 05:48:07;;;;;;;244.23;9.80;;;;;;;21.24;47.05;99919.53;7287339;19;130017;-38
2024/01/25 05:50:33;;;;;;;289.47;11.70;;;;;;;21.03;47.80;99939.63;7289452;19;130478;-38
2024/01/25 05:52:58;;;;;;;281.85;11.90;;;;;;;20.82;47.87;99925.69;7288861;19;131302;-37
2024/01/25 05:55:23;;;;;;;172.93;6.68;;;;;;;20.78;48.44;99942.56;7288680;19;130472;-38
2024/01/25 05:57:49;;;;;;;198.65;8.40;;;;;;;20.69;48.68;99932.91;7287077;19;131285;-38
2024/01/25 06:00:15;;;;;;;255.82;10.07;;;;;;;20.65;48.64;99952.38;7290657;19;131157;-40
2024/01/25 06:02:41;;;;;;;235.18;9.63;;;;;;;20.48;48.48;99940.69;7287003;19;132154;-41
2024/01/25 06:05:07;;;;;;;247.40;9.75;;;;;;;20.69;48.83;99959.03;7284565;19;130847;-39
2024/01/25 06:07:33;;;;;;;254.82;10.10;;;;;;;20.74;48.80;99964.69;7281503;19;131414;-37
2024/01/25 06:09:58;;;;;;;329.05;13.55;;;;;;;20.72;48.34;99954.34;7279706;19;129965;-37
2024/01/25 06:12:23;;;;;;;132.07;5.32;;;;;;;20.66;49.23;99960.06;7286065;19;129724;-37
2024/01/25 06:14:49;;;;;;;173.63;6.88;;;;;;;20.61;48.98;99958.78;7288669;19;129669;-37
2024/01/25 06:17:14;;;;;;;262.77;10.07;;;;;;;20.56;49.14;99947.91;7291210;19;130598;-38
2024/01/25 06:19:40;;;;;;;261.20;11.03;;;;;;;20.55;49.66;99951.47;7292288;19;131559;-39
2024/01/25 06:22:06;;;;;;;169.93;6.75;;;;;;;20.47;49.93;99956.47;7291190;19;130611;-37
2024/01/25 06:24:31;;;;;;;100.73;4.20;;;;;;;20.27;50.36;99933.75;7292464;19;130214;-38
2024/01/25 06:26:57;;;;;;;118.47;4.80;;;;;;;20.36;50.68;99953.91;7293551;19;129749;-37
2024/01/25 06:29:22;;;;;;;213.43;8.13;;;;;;;20.15;50.74;99942.53;7292734;19;130936;-38
2024/01/25 06:31:48;;;;;;;179.07;7.05;;;;;;;20.25;50.68;99956.53;7288975;19;129947;-37
2024/01/25 06:34:13;;;;;;;159.57;6.78;;;;;;;20.23;50.82;99966.28;7290870;19;130552;-37
2024/01/25 06:36:39;;;;;;;202.60;8.40;;;;;;;20.27;50.49;99970.28;7292788;19;130850;-37
2024/01/25 06:39:04;;;;;;;210.50;8.35;;;;;;;20.36;50.23;99972.19;7292257;19;129723;-36
2024/01/25 06:41:30;;;;;;;130.30;5.10;;;;;;;20.44;49.61;99975.81;7288998;19;129127;-38
2024/01/25 06:43:55;;;;;;;202.75;7.90;;;;;;;20.46;49.05;99975.72;7290922;19;131311;-36
2024/01/25 06:46:21;;;;;;;173.90;6.78;;;;;;;20.52;48.66;99983.06;7292440;19;130810;-38
2024/01/25 06:48:46;;;;;;;191.27;7.75;;;;;;;20.53;48.76;99980.31;7289924;19;130136;-35
2024/01/25 06:51:11;;;;;;;152.20;5.95;;;;;;;20.53;48.37;99990.75;7289895;19;131189;-40
2024/01/25 06:53:37;;;;;;;246.35;9.82;;;;;;;20.57;48.07;99991.34;7290709;19;129279;-35
2024/01/25 06:56:02;;;;;;;163.88;6.68;;;;;;;20.57;48.78;99996.56;7292271;19;132043;-38
2024/01/25 06:58:28;;;;;;;176.10;6.97;;;;;;;20.62;48.79;99999.66;7290618;19;130743;-36
2024/01/25 07:00:53;;;;;;;155.38;6.20;;;;;;;20.59;47.87;99994.69;7288833;19;130692;-35
2024/01/25 07:03:19;;;;;;;215.48;8.32;;;;;;;20.54;48.22;99996.81;7289666;19;130293;-38
2024/01/25 07:05:44;;;;;;;164.65;6.50;;;;;;;20.56;48.95;100008.00;7289800;19;130035;-39
2024/01/25 07:08:13;;;;;;;170.95;6.75;;;;;;;20.54;49.05;100028.97;7290498;19;130878;-35
2024/01/25 07:10:42;;;;;;;199.27;7.97;;;;;;;20.40;48.87;100026.66;7287805;19;131786;-39
2024/01/25 07:13:07;;;;;;;241.80;9.38;;;;;;;20.33;49.64;100024.63;7289740;19;128880;-39
2024/01/25 07:15:33;;;;;;;213.35;8.55;;;;;;;20.31;49.74;100037.00;7286183;19;129747;-43
2024/01/25 07:17:58;;;;;;;179.82;7.25;;;;;;;20.28;49.44;100025.00;7289060;19;131195;-39
2024/01/25 07:20:23;;;;;;;191.63;7.50;;;;;;;20.30;50.18;100024.88;7288493;19;133142;-40
2024/01/25 07:22:49;;;;;;;270.57;10.87;;;;;;;20.29;49.95;100031.91;7289293;19;130190;-41
2024/01/25 07:25:14;;;;;;;133.93;5.28;;;;;;;20.29;49.77;100026.69;7290165;19;129694;-38
2024/01/25 07:27:39;;;;;;;186.63;7.57;;;;;;;20.37;49.50;100033.88;7288834;19;130696;-38
2024/01/25 07:30:07;;;;;;;225.93;11.43;;;;;;;20.42;49.94;100034.34;7294380;19;132647;-38
2024/01/25 07:32:34;;;;;;;165.73;6.38;;;;;;;20.47;49.47;100047.88;7296939;19;131520;-40
2024/01/25 07:34:59;;;;;;;146.50;5.72;;;;;;;20.46;49.23;100046.25;7297125;19;131023;-42
2024/01/25 07:37:24;;;;;;;199.73;7.68;;;;;;;20.44;50.04;100041.09;7297550;19;132306;-40
2024/01/25 07:39:50;;;;;;;272.13;10.80;;;;;;;20.34;49.65;100049.81;7295738;19;130300;-38
2024/01/25 07:42:15;;;;;;;163.82;6.43;;;;;;;20.22;49.98;100054.22;7297607;19;130344;-36
2024/01/25 07:44:40;;;;;;;201.38;8.50;;;;;;;20.19;50.30;100064.06;7297691;19;130450;-38
2024/01/25 07:47:06;;;;;;;202.05;7.95;;;;;;;20.20;49.86;100073.53;7295494;19;130114;-40
2024/01/25 07:49:31;;;;;;;241.18;9.40;;;;;;;20.20;49.56;100081.38;7296057;19;128925;-41
2024/01/25 07:51:56;;;;;;;182.45;7.13;;;;;;;20.17;49.64;100079.00;7290867;19;131952;-39
2024/01/25 07:54:22;;;;;;;228.45;9.05;;;;;;;20.20;49.61;100083.97;7292499;19;130287;-40
2024/01/25 07:56:47;;;;;;;276.17;11.80;;;;;;;20.20;49.95;100081.38;7290926;19;130757;-38
2024/01/25 07:59:13;;;;;;;260.30;10.17;;;;;;;20.20;49.91;100076.97;7289760;19;130857;-41
2024/01/25 08:01:38;;;;;;;173.85;6.97;;;;;;;20.47;48.94;100072.22;7294050;19;130834;-41
2024/01/25 08:04:03;;;;;;;195.13;7.78;;;;;;;20.66;48.69;100066.34;7296906;19;130293;-39
2024/01/25 08:06:29;;;;;;;183.38;7.53;;;;;;;20.70;48.14;100066.00;7295652;19;130320;-39
2024/01/25 08:08:54;;;;;;;255.18;9.85;;;;;;;20.55;48.51;100042.88;7294463;19;129673;-43
2024/01/25 08:11:21;;;;;;;155.97;6.10;;;;;;;20.69;48.66;100074.78;7294589;19;130361;-40
2024/01/25 08:13:49;;;;;;;206.82;8.43;;;;;;;20.71;48.63;100079.88;7290104;19;130969;-41
2024/01/25 08:16:19;;;;;;;279.85;11.10;;;;;;;20.74;48.54;100082.28;7293986;19;129294;-44
2024/01/25 08:18:48;;;;;;;227.65;9.05;;;;;;;20.73;49.28;100078.81;7294638;19;130426;-44
2024/01/25 08:21:13;;;;;;;154.63;6.30;;;;;;;20.67;48.91;100075.88;7293929;19;129935;-37
2024/01/25 08:23:39;;;;;;;127.13;5.15;;;;;;;20.68;49.19;100087.97;7296319;19;130053;-44
2024/01/25 08:26:05;;;;;;;139.60;5.40;;;;;;;20.68;49.27;100087.97;7295566;19;130825;-39
2024/01/25 08:28:30;;;;;;;156.55;6.15;;;;;;;20.63;49.65;100087.50;7295095;19;129471;-39
2024/01/25 08:30:55;;;;;;;236.35;9.60;;;;;;;20.69;49.15;100087.03;7293781;19;130549;-37
2024/01/25 08:33:21;;;;;;;167.60;6.63;;;;;;;20.50;49.07;100097.25;7296524;19;130726;-44
2024/01/25 08:35:46;;;;;;;216.85;9.05;;;;;;;20.37;49.49;100093.94;7295407;19;130609;-44
2024/01/25 08:38:12;;;;;;;139.90;5.50;;;;;;;20.10;49.86;100076.00;7295061;19;130815;-43
2024/01/25 08:40:37;;;;;;;158.47;6.13;;;;;;;20.21;50.09;100102.13;7291909;19;133376;-37
2024/01/25 08:43:04;;;;;;;174.38;6.93;;;;;;;20.24;49.80;100080.19;7295479;19;130266;-37
2024/01/25 08:45:29;;;;;;;;;;;;;;;20.19;51.06;100100.59;7295408;19;131974;-40
2024/01/25 08:47:55;;;;;;;143.63;5.93;;;;;;;20.16;50.55;100098.22;7296166;19;129354;-39
2024/01/25 08:50:21;;;;;;;122.13;4.90;;;;;;;20.15;50.55;100109.59;7294163;19;131067;-37
2024/01/25 08:52:47;;;;;;;120.10;5.13;;;;;;;20.16;49.83;100111.28;7292763;19;129186;-41
2024/01/25 08:55:13;;;;;;;230.27;9.05;;;;;;;20.16;49.78;100116.50;7294573;19;130923;-40
2024/01/25 08:57:40;;;;;;;184.40;7.20;;;;;;;20.21;50.29;100115.19;7295889;19;130403;-37
2024/01/25 09:00:12;;;;;;;228.40;9.38;;;;;;;20.33;50.01;100110.78;7291455;19;129540;-44
2024/01/25 09:02:38;;;;;;;173.88;6.82;;;;;;;20.37;49.59;100114.84;7294890;19;130026;-37
2024/01/25 09:05:08;;;;;;;245.87;9.67;;;;;;;20.36;49.67;100114.00;7292938;19;130658;-39
2024/01/25 09:07:33;;;;;;;186.07;7.18;;;;;;;20.36;50.08;100113.19;7294650;19;130881;-39
2024/01/25 09:09:59;;;;;;;180.93;7.63;;;;;;;20.36;50.12;100116.63;7293230;19;129790;-37
2024/01/25 09:12:24;;;;;;;193.35;7.80;;;;;;;20.35;49.58;100116.72;7291895;19;129640;-43
2024/01/25 09:14:49;;;;;;;269.65;10.80;;;;;;;20.35;50.38;100116.72;7288712;19;130313;-42
2024/01/25 09:17:21;;;;;;;179.03;7.13;;;;;;;20.31;50.49;100117.94;7293650;19;130346;-41
2024/01/25 09:19:47;;;;;;;177.07;7.00;;;;;;;20.18;49.91;100080.69;7291397;19;129695;-39
2024/01/25 09:22:12;;;;;;;139.63;5.55;;;;;;;20.26;50.00;100112.25;7293840;19;129456;-41
2024/01/25 09:24:40;;;;;;;221.90;8.52;;;;;;;20.22;50.23;100116.88;7294527;19;131997;-39
2024/01/25 09:27:05;;;;;;;186.30;7.22;;;;;;;20.19;50.55;100121.47;7293335;19;131129;-40
2024/01/25 09:29:30;;;;;;;175.60;6.75;;;;;;;20.14;50.24;100131.41;7290503;19;129554;-40
2024/01/25 09:31:56;;;;;;;203.60;8.15;;;;;;;20.15;50.68;100133.09;7291795;19;129481;-40
2024/01/25 09:34:21;;;;;;;208.05;8.07;;;;;;;20.14;50.47;100145.31;7292953;19;131476;-42
2024/01/25 09:36:46;;;;;;;218.07;9.15;;;;;;;20.16;51.11;100142.63;7293674;19;132873;-41
2024/01/25 09:39:12;;;;;;;193.30;7.45;;;;;;;20.17;50.80;100144.25;7294862;19;131008;-37
2024/01/25 09:41:37;;;;;;;249.15;9.70;;;;;;;20.25;50.29;100142.72;7286770;19;130439;-40
2024/01/25 09:44:03;;;;;;;234.38;9.13;;;;;;;20.07;49.96;100135.44;7291255;19;130569;-42
2024/01/25 09:46:30;;;;;;;179.97;6.93;;;;;;;20.21;50.08;100151.72;7293725;19;129119;-42
2024/01/25 09:48:55;;;;;;;205.05;8.20;;;;;;;20.18;49.86;100167.63;7293350;19;133179;-37
2024/01/25 09:51:23;;;;;;;162.70;6.45;;;;;;;20.19;50.09;100176.31;7290056;19;129569;-44
2024/01/25 09:53:49;;;;;;;209.98;8.40;;;;;;;20.18;50.06;100177.28;7289886;19;130375;-38
2024/01/25 09:56:18;;;;;;;221.50;8.43;;;;;;;20.16;50.20;100189.59;7293252;19;130454;-39
2024/01/25 09:58:45;;;;;;;168.80;6.75;;;;;;;20.16;50.67;100173.94;7289213;19;130333;-37
2024/01/25 10:01:15;;;;;;;190.90;7.57;;;;;;;20.18;49.79;100161.59;7289269;19;129359;-43
2024/01/25 10:03:46;;;;;;;266.40;10.75;;;;;;;20.15;49.87;100156.59;7289377;19;130384;-42
2024/01/25 10:06:13;;;;;;;164.32;6.40;;;;;;;20.27;50.04;100181.78;7291382;19;132354;-40
2024/01/25 10:08:38;;;;;;;190.75;7.65;;;;;;;20.27;49.61;100197.44;7292599;19;131849;-37
2024/01/25 10:11:04;;;;;;;200.45;8.10;;;;;;;20.24;49.72;100192.47;7289849;19;129328;-39
2024/01/25 10:13:29;;;;;;;194.25;7.68;;;;;;;20.25;50.54;100194.09;7290669;19;130708;-41
2024/01/25 10:15:56;;;;;;;195.02;7.97;;;;;;;20.23;50.18;100206.47;7292258;19;130332;-41
2024/01/25 10:18:27;;;;;;;112.93;4.43;;;;;;;20.24;50.07;100202.91;7292465;19;133469;-38
2024/01/25 10:20:54;;;;;;;209.70;8.38;;;;;;;20.22;50.33;100204.78;7290704;19;131371;-38
2024/01/25 10:23:19;;;;;;;250.32;9.75;;;;;;;20.21;50.27;100203.13;7292257;19;130534;-40
2024/01/25 10:25:45;;;;;;;72.20;3.10;;;;;;;20.20;50.43;100207.53;7291950;19;130424;-38
2024/01/25 10:28:12;;;;;;;201.52;7.85;;;;;;;20.20;50.28;100202.28;7291310;19;129845;-39
2024/01/25 10:30:38;;;;;;;141.77;5.70;;;;;;;20.17;50.82;100215.59;7291085;19;130527;-40
2024/01/25 10:33:07;;;;;;;236.83;9.13;;;;;;;20.07;50.81;100185.03;7290676;19;131211;-41
2024/01/25 10:35:32;;;;;;;161.93;6.38;;;;;;;20.09;50.53;100194.41;7292433;19;133891;-40
2024/01/25 10:37:58;;;;;;;204.15;8.23;;;;;;;20.11;50.36;100196.91;7290418;19;129694;-37
2024/01/25 10:40:24;;;;;;;194.85;7.63;;;;;;;20.07;50.75;100192.84;7290511;19;129570;-36
2024/01/25 10:42:50;;;;;;;233.10;9.23;;;;;;;20.09;50.23;100193.56;7291630;19;130174;-41
2024/01/25 10:45:16;;;;;;;208.27;8.23;;;;;;;20.07;49.97;100201.53;7292699;19;130406;-41
2024/01/25 10:47:42;;;;;;;169.80;6.75;;;;;;;20.05;50.79;100197.34;7290097;19;131959;-37
2024/01/25 10:50:11;;;;;;;200.13;8.13;;;;;;;20.06;50.41;100196.44;7289951;19;131039;-38
2024/01/25 10:52:38;;;;;;;241.27;9.75;;;;;;;20.08;50.25;100184.91;7290093;19;131200;-41
2024/01/25 10:55:05;;;;;;;195.68;8.07;;;;;;;20.08;50.62;100197.16;7291710;19;130376;-43
2024/01/25 10:57:43;;;;;;;166.82;6.47;;;;;;;20.07;51.44;100204.13;7289654;19;129257;-40
2024/01/25 11:00:11;;;;;;;238.32;9.63;;;;;;;20.25;49.71;100184.50;7289833;19;129559;-43